Time;durP1;ratioP1;P1;durP2;ratioP2;P2;SDS_P1;SDS_P2;PMS_P1;PMS_P2;Temp;Humidity;BMP_temperature;BMP_pressure;BME280_temperature;BME280_humidity;BME280_pressure;Samples;Min_cycle;Max_cycle;Signal;HPM_P1;HPM_P2
2022/11/25 00:00:49;;;;;;;;;;;;;;;7.59;99.59766;100901.3;;;;-75
2022/11/25 00:05:49;;;;;;;;;;;;;;;7.58;99.73535;100906.2;;;;-76
2022/11/25 00:07:15;;;;;;;10.4;2.3;;;;;;;;;;;;;-77
2022/11/25 00:10:49;;;;;;;;;;;;;;;7.58;100;100907.5;;;;-76
2022/11/25 00:15:49;;;;;;;;;;;;;;;7.58;100;100906.7;;;;-77
2022/11/25 00:20:49;;;;;;;;;;;;;;;7.59;100;100902.1;;;;-75
2022/11/25 00:25:49;;;;;;;;;;;;;;;7.62;100;100899.3;;;;-77
2022/11/25 00:30:49;;;;;;;;;;;;;;;7.65;100;100909.7;;;;-75
2022/11/25 00:35:52;;;;;;;;;;;;;;;7.65;100;100915.4;;;;-76
2022/11/25 00:37:15;;;;;;;10.5;2.6;;;;;;;;;;;;;-77
2022/11/25 00:44:34;;;;;;;;;;;;;;;7.67;100;100920.2;;;;-77
2022/11/25 00:45:49;;;;;;;;;;;;;;;7.66;100;100921.6;;;;-77
2022/11/25 00:50:50;;;;;;;;;;;;;;;7.67;100;100932;;;;-78
2022/11/25 01:00:50;;;;;;;;;;;;;;;7.65;100;100915.9;;;;-77
2022/11/25 01:13:58;;;;;;;;;;;;;;;7.78;100;100917.4;;;;-78
2022/11/25 01:16:37;;;;;;;;;;;;;;;7.71;100;100912.9;;;;-78
2022/11/25 01:21:29;;;;;;;;;;;;;;;7.71;100;100918.4;;;;-77
2022/11/25 01:27:15;;;;;;;;;;;;;;;7.77;100;100920.5;;;;-76
2022/11/25 01:31:09;;;;;;;;;;;;;;;7.71;100;100924.9;;;;-78
2022/11/25 01:36:09;;;;;;;;;;;;;;;7.69;100;100931.6;;;;-77
2022/11/25 01:37:18;;;;;;;6.3;2;;;;;;;;;;;;;-78
2022/11/25 01:41:08;;;;;;;;;;;;;;;7.68;100;100933.6;;;;-78
2022/11/25 01:46:10;;;;;;;;;;;;;;;7.67;100;100927.5;;;;-76
2022/11/25 01:51:08;;;;;;;;;;;;;;;7.65;100;100923;;;;-78
2022/11/25 01:56:08;;;;;;;;;;;;;;;7.63;100;100919;;;;-75
2022/11/25 02:01:10;;;;;;;;;;;;;;;7.63;100;100916;;;;-76
2022/11/25 02:06:13;;;;;;;;;;;;;;;7.63;100;100915.4;;;;-77
2022/11/25 02:07:19;;;;;;;5.9;1.9;;;;;;;;;;;;;-77
2022/11/25 02:11:08;;;;;;;;;;;;;;;7.65;100;100923.9;;;;-77
2022/11/25 02:16:08;;;;;;;;;;;;;;;7.63;100;100929.6;;;;-76
2022/11/25 02:21:08;;;;;;;;;;;;;;;7.64;100;100925.8;;;;-76
2022/11/25 02:26:08;;;;;;;;;;;;;;;7.66;100;100915.2;;;;-78
2022/11/25 02:31:10;;;;;;;;;;;;;;;7.66;100;100917.8;;;;-76
2022/11/25 02:36:10;;;;;;;;;;;;;;;7.67;100;100915.5;;;;-76
2022/11/25 02:37:27;;;;;;;7.5;2.7;;;;;;;;;;;;;-76
2022/11/25 02:46:11;;;;;;;;;;;;;;;7.68;100;100924.2;;;;-76
2022/11/25 02:51:08;;;;;;;;;;;;;;;7.68;100;100930.5;;;;-76
2022/11/25 02:56:08;;;;;;;;;;;;;;;7.7;100;100929.7;;;;-77
2022/11/25 03:01:08;;;;;;;;;;;;;;;7.69;100;100930.5;;;;-76
2022/11/25 03:06:08;;;;;;;;;;;;;;;7.7;100;100926.1;;;;-76
2022/11/25 03:07:18;;;;;;;9.8;3.3;;;;;;;;;;;;;-76
2022/11/25 03:11:08;;;;;;;;;;;;;;;7.72;100;100936.6;;;;-76
2022/11/25 03:16:08;;;;;;;;;;;;;;;7.72;100;100945.9;;;;-77
2022/11/25 03:21:07;;;;;;;;;;;;;;;7.73;100;100956.4;;;;-76
2022/11/25 03:26:13;;;;;;;;;;;;;;;7.76;100;100959.3;;;;-76
2022/11/25 03:31:07;;;;;;;;;;;;;;;7.75;100;100950.2;;;;-76
2022/11/25 03:36:08;;;;;;;;;;;;;;;7.74;100;100942.2;;;;-76
2022/11/25 03:37:21;;;;;;;9.4;3.4;;;;;;;;;;;;;-77
2022/11/25 03:41:08;;;;;;;;;;;;;;;7.73;100;100934;;;;-76
2022/11/25 03:46:07;;;;;;;;;;;;;;;7.72;100;100948.7;;;;-76
2022/11/25 03:51:07;;;;;;;;;;;;;;;7.71;100;100947.8;;;;-76
2022/11/25 03:56:08;;;;;;;;;;;;;;;7.73;100;100950.6;;;;-76
2022/11/25 04:01:08;;;;;;;;;;;;;;;7.69;100;100956.7;;;;-76
2022/11/25 04:06:07;;;;;;;;;;;;;;;7.67;100;100953;;;;-78
2022/11/25 04:07:18;;;;;;;11.5;3.4;;;;;;;;;;;;;-78
2022/11/25 04:11:08;;;;;;;;;;;;;;;7.65;100;100966.6;;;;-76
2022/11/25 04:16:07;;;;;;;;;;;;;;;7.65;100;100968.3;;;;-77
2022/11/25 04:21:07;;;;;;;;;;;;;;;7.64;100;100973.5;;;;-76
2022/11/25 04:26:09;;;;;;;;;;;;;;;7.63;100;100984;;;;-76
2022/11/25 04:31:08;;;;;;;;;;;;;;;7.6;100;100987.1;;;;-76
2022/11/25 04:36:08;;;;;;;;;;;;;;;7.56;100;101002.4;;;;-76
2022/11/25 04:37:21;;;;;;;10.3;2.6;;;;;;;;;;;;;-77
2022/11/25 04:41:07;;;;;;;;;;;;;;;7.53;100;101005.5;;;;-76
2022/11/25 04:46:08;;;;;;;;;;;;;;;7.48;100;101013.5;;;;-76
2022/11/25 04:51:07;;;;;;;;;;;;;;;7.43;100;101016.1;;;;-77
2022/11/25 04:56:10;;;;;;;;;;;;;;;7.36;100;101020.7;;;;-75
2022/11/25 05:01:07;;;;;;;;;;;;;;;7.31;100;101021.5;;;;-77
2022/11/25 05:06:12;;;;;;;;;;;;;;;7.25;100;101036.1;;;;-77
2022/11/25 05:07:21;;;;;;;6.7;2.3;;;;;;;;;;;;;-78
2022/11/25 05:11:08;;;;;;;;;;;;;;;7.21;100;101043.3;;;;-76
2022/11/25 05:16:08;;;;;;;;;;;;;;;7.16;100;101045.6;;;;-76
2022/11/25 05:21:08;;;;;;;;;;;;;;;7.12;100;101053.7;;;;-76
2022/11/25 05:26:08;;;;;;;;;;;;;;;7.06;100;101061.5;;;;-76
2022/11/25 05:31:09;;;;;;;;;;;;;;;7;100;101069.1;;;;-77
2022/11/25 05:36:07;;;;;;;;;;;;;;;6.99;100;101070.5;;;;-77
2022/11/25 05:37:20;;;;;;;9.2;2.3;;;;;;;;;;;;;-76
2022/11/25 05:41:09;;;;;;;;;;;;;;;6.98;100;101072.2;;;;-76
2022/11/25 05:46:11;;;;;;;;;;;;;;;6.91;100;101075.6;;;;-76
2022/11/25 05:51:08;;;;;;;;;;;;;;;6.88;100;101079.5;;;;-77
2022/11/25 05:56:08;;;;;;;;;;;;;;;6.83;100;101082.6;;;;-76
2022/11/25 06:01:08;;;;;;;;;;;;;;;6.84;100;101094.1;;;;-77
2022/11/25 06:06:14;;;;;;;;;;;;;;;6.8;100;101099.8;;;;-77
2022/11/25 06:07:21;;;;;;;4.2;1.8;;;;;;;;;;;;;-77
2022/11/25 06:11:29;;;;;;;;;;;;;;;6.79;100;101106.8;;;;-77
2022/11/25 06:16:12;;;;;;;;;;;;;;;6.81;100;101100.9;;;;-77
2022/11/25 06:21:08;;;;;;;;;;;;;;;6.88;100;101102.2;;;;-78
2022/11/25 06:26:15;;;;;;;;;;;;;;;6.88;100;101107.2;;;;-77
2022/11/25 06:31:15;;;;;;;;;;;;;;;6.79;100;101108.7;;;;-77
2022/11/25 06:36:12;;;;;;;;;;;;;;;6.75;100;101111.8;;;;-78
2022/11/25 06:37:22;;;;;;;6.2;1.8;;;;;;;;;;;;;-78
2022/11/25 06:41:08;;;;;;;;;;;;;;;6.66;100;101113.1;;;;-77
2022/11/25 06:46:12;;;;;;;;;;;;;;;6.63;100;101125.6;;;;-77
2022/11/25 06:51:09;;;;;;;;;;;;;;;6.6;100;101138.5;;;;-77
2022/11/25 06:56:13;;;;;;;;;;;;;;;6.55;100;101146;;;;-77
2022/11/25 07:01:10;;;;;;;;;;;;;;;6.51;100;101142.2;;;;-80
2022/11/25 07:06:07;;;;;;;;;;;;;;;6.47;100;101149.6;;;;-78
2022/11/25 07:07:21;;;;;;;6;2.2;;;;;;;;;;;;;-78
2022/11/25 07:11:11;;;;;;;;;;;;;;;6.42;100;101162.3;;;;-78
2022/11/25 07:16:09;;;;;;;;;;;;;;;6.39;100;101169.8;;;;-76
2022/11/25 07:21:11;;;;;;;;;;;;;;;6.37;100;101176.3;;;;-76
2022/11/25 07:26:11;;;;;;;;;;;;;;;6.35;100;101184.6;;;;-77
2022/11/25 07:31:12;;;;;;;;;;;;;;;6.32;100;101191.9;;;;-77
2022/11/25 07:36:11;;;;;;;;;;;;;;;6.28;100;101198;;;;-78
2022/11/25 07:37:21;;;;;;;5.8;2.2;;;;;;;;;;;;;-77
2022/11/25 07:41:14;;;;;;;;;;;;;;;6.28;100;101213;;;;-77
2022/11/25 07:46:18;;;;;;;;;;;;;;;6.25;100;101217.6;;;;-77
2022/11/25 07:51:07;;;;;;;;;;;;;;;6.26;100;101230;;;;-77
2022/11/25 07:56:08;;;;;;;;;;;;;;;6.29;100;101239.2;;;;-76
2022/11/25 08:01:09;;;;;;;;;;;;;;;6.29;100;101253.2;;;;-76
2022/11/25 08:06:10;;;;;;;;;;;;;;;6.32;100;101259.7;;;;-76
2022/11/25 08:07:23;;;;;;;8.7;2.5;;;;;;;;;;;;;-77
2022/11/25 08:11:08;;;;;;;;;;;;;;;6.36;100;101261.2;;;;-77
2022/11/25 08:16:08;;;;;;;;;;;;;;;6.39;100;101260.1;;;;-76
2022/11/25 08:21:08;;;;;;;;;;;;;;;6.48;100;101259.1;;;;-76
2022/11/25 08:26:10;;;;;;;;;;;;;;;6.63;100;101266.5;;;;-76
2022/11/25 08:31:12;;;;;;;;;;;;;;;6.81;100;101275.3;;;;-76
2022/11/25 08:36:08;;;;;;;;;;;;;;;6.98;100;101281.8;;;;-76
2022/11/25 08:37:21;;;;;;;8.4;2.2;;;;;;;;;;;;;-76
2022/11/25 08:41:11;;;;;;;;;;;;;;;7.05;100;101288.6;;;;-76
2022/11/25 08:46:09;;;;;;;;;;;;;;;7.1;100;101300.6;;;;-77
2022/11/25 08:51:10;;;;;;;;;;;;;;;7.15;100;101309.8;;;;-78
2022/11/25 08:56:07;;;;;;;;;;;;;;;7.22;100;101308.4;;;;-78
2022/11/25 09:01:09;;;;;;;;;;;;;;;7.29;100;101317.6;;;;-76
2022/11/25 09:06:08;;;;;;;;;;;;;;;7.36;100;101320.8;;;;-78
2022/11/25 09:07:22;;;;;;;8.5;2.1;;;;;;;;;;;;;-77
2022/11/25 09:11:07;;;;;;;;;;;;;;;7.41;100;101320.2;;;;-77
2022/11/25 09:16:08;;;;;;;;;;;;;;;7.47;100;101329.9;;;;-76
2022/11/25 09:21:09;;;;;;;;;;;;;;;7.49;100;101333.3;;;;-76
2022/11/25 09:26:08;;;;;;;;;;;;;;;7.52;100;101340.5;;;;-77
2022/11/25 09:31:13;;;;;;;;;;;;;;;7.59;100;101349.4;;;;-76
2022/11/25 09:36:09;;;;;;;;;;;;;;;7.69;100;101357.1;;;;-76
2022/11/25 09:37:21;;;;;;;10.8;2.1;;;;;;;;;;;;;-76
2022/11/25 09:41:11;;;;;;;;;;;;;;;7.76;100;101370.4;;;;-76
2022/11/25 09:51:10;;;;;;;;;;;;;;;7.91;100;101379.7;;;;-77
2022/11/25 09:56:13;;;;;;;;;;;;;;;7.94;100;101392.1;;;;-76
2022/11/25 10:01:08;;;;;;;;;;;;;;;7.96;100;101404.3;;;;-76
2022/11/25 10:06:10;;;;;;;;;;;;;;;8.06;100;101410.1;;;;-76
2022/11/25 10:07:27;;;;;;;7.2;1.6;;;;;;;;;;;;;-76
2022/11/25 10:11:15;;;;;;;;;;;;;;;8.12;100;101410.8;;;;-76
2022/11/25 10:16:10;;;;;;;;;;;;;;;8.26;100;101414.1;;;;-77
2022/11/25 10:21:08;;;;;;;;;;;;;;;8.26;100;101424.4;;;;-76
2022/11/25 10:26:15;;;;;;;;;;;;;;;8.35;100;101434.7;;;;-77
2022/11/25 10:31:09;;;;;;;;;;;;;;;8.41;100;101433.7;;;;-76
2022/11/25 10:36:10;;;;;;;;;;;;;;;8.44;100;101444;;;;-75
2022/11/25 10:37:28;;;;;;;8.1;1.6;;;;;;;;;;;;;-76
2022/11/25 10:41:07;;;;;;;;;;;;;;;8.49;100;101457.2;;;;-75
2022/11/25 10:46:11;;;;;;;;;;;;;;;8.64;100;101465.6;;;;-76
2022/11/25 10:51:16;;;;;;;;;;;;;;;8.77;100;101472.8;;;;-77
2022/11/25 10:56:12;;;;;;;;;;;;;;;8.85;100;101489.1;;;;-76
2022/11/25 11:01:16;;;;;;;;;;;;;;;8.95;100;101488.9;;;;-77
2022/11/25 11:06:07;;;;;;;;;;;;;;;9.09;100;101493.1;;;;-77
2022/11/25 11:07:22;;;;;;;15;2.2;;;;;;;;;;;;;-76
2022/11/25 11:11:18;;;;;;;;;;;;;;;9.19;100;101503;;;;-75
2022/11/25 11:16:07;;;;;;;;;;;;;;;9.22;100;101512.7;;;;-76
2022/11/25 11:21:09;;;;;;;;;;;;;;;9.25;100;101520.1;;;;-75
2022/11/25 11:26:10;;;;;;;;;;;;;;;9.3;100;101528;;;;-76
2022/11/25 11:31:10;;;;;;;;;;;;;;;9.34;100;101531.3;;;;-75
2022/11/25 11:36:13;;;;;;;;;;;;;;;9.43;100;101541.4;;;;-75
2022/11/25 11:37:28;;;;;;;14.8;1.8;;;;;;;;;;;;;-75
2022/11/25 11:41:16;;;;;;;;;;;;;;;9.57;100;101541.3;;;;-75
2022/11/25 11:46:17;;;;;;;;;;;;;;;9.68;100;101547.9;;;;-76
2022/11/25 11:51:11;;;;;;;;;;;;;;;9.75;99.91504;101552.1;;;;-76
2022/11/25 11:56:11;;;;;;;;;;;;;;;9.74;99.52637;101556;;;;-76
2022/11/25 12:01:14;;;;;;;;;;;;;;;9.68;99.15332;101560.2;;;;-76
2022/11/25 12:06:08;;;;;;;;;;;;;;;9.59;98.9668;101564.1;;;;-77
2022/11/25 12:07:26;;;;;;;9.3;1.4;;;;;;;;;;;;;-76
2022/11/25 12:11:12;;;;;;;;;;;;;;;9.5;98.98926;101572.8;;;;-76
2022/11/25 12:16:14;;;;;;;;;;;;;;;9.46;99.17871;101578.5;;;;-76
2022/11/25 12:21:10;;;;;;;;;;;;;;;9.46;99.11328;101590.6;;;;-76
2022/11/25 12:26:11;;;;;;;;;;;;;;;9.42;99.41211;101594.7;;;;-76
2022/11/25 12:31:15;;;;;;;;;;;;;;;9.46;99.5957;101609.5;;;;-76
2022/11/25 12:36:13;;;;;;;;;;;;;;;9.53;98.86621;101607.9;;;;-76
2022/11/25 12:37:27;;;;;;;8.4;1.1;;;;;;;;;;;;;-76
2022/11/25 12:41:11;;;;;;;;;;;;;;;9.58;98.4707;101609.5;;;;-75
2022/11/25 12:46:14;;;;;;;;;;;;;;;9.6;98.52051;101615.9;;;;-76
2022/11/25 12:51:13;;;;;;;;;;;;;;;9.58;98.31641;101624.4;;;;-75
2022/11/25 12:56:15;;;;;;;;;;;;;;;9.56;97.8291;101633.5;;;;-76
2022/11/25 13:01:17;;;;;;;;;;;;;;;9.53;98.09766;101645.4;;;;-76
2022/11/25 13:06:21;;;;;;;;;;;;;;;9.45;98.59277;101652.1;;;;-76
2022/11/25 13:07:28;;;;;;;5.7;0.9;;;;;;;;;;;;;-76
2022/11/25 13:11:18;;;;;;;;;;;;;;;9.37;99.36719;101665.2;;;;-76
2022/11/25 13:16:09;;;;;;;;;;;;;;;9.28;99.11621;101677.2;;;;-76
2022/11/25 13:21:13;;;;;;;;;;;;;;;9.21;99.0791;101677.4;;;;-76
2022/11/25 13:26:18;;;;;;;;;;;;;;;9.14;99.16016;101687.2;;;;-76
2022/11/25 13:31:18;;;;;;;;;;;;;;;9.08;99.58789;101689.4;;;;-76
2022/11/25 13:36:18;;;;;;;;;;;;;;;9.03;99.53125;101696.5;;;;-76
2022/11/25 13:37:35;;;;;;;12.4;1.3;;;;;;;;;;;;;-76
2022/11/25 13:41:17;;;;;;;;;;;;;;;8.99;99.77344;101707.3;;;;-76
2022/11/25 13:46:09;;;;;;;;;;;;;;;8.94;100;101716.8;;;;-75
2022/11/25 13:51:22;;;;;;;;;;;;;;;8.88;100;101721.2;;;;-76
2022/11/25 13:56:20;;;;;;;;;;;;;;;8.83;100;101728.4;;;;-76
2022/11/25 14:01:18;;;;;;;;;;;;;;;8.77;100;101731.9;;;;-76
2022/11/25 14:06:18;;;;;;;;;;;;;;;8.74;100;101746.5;;;;-76
2022/11/25 14:07:34;;;;;;;7.1;1.3;;;;;;;;;;;;;-77
2022/11/25 14:11:20;;;;;;;;;;;;;;;8.71;100;101756.3;;;;-76
2022/11/25 14:16:14;;;;;;;;;;;;;;;8.68;100;101764.7;;;;-75
2022/11/25 14:21:11;;;;;;;;;;;;;;;8.63;100;101772;;;;-76
2022/11/25 14:26:12;;;;;;;;;;;;;;;8.6;100;101777.4;;;;-76
2022/11/25 14:31:10;;;;;;;;;;;;;;;8.55;100;101786.7;;;;-76
2022/11/25 14:36:13;;;;;;;;;;;;;;;8.49;100;101788.7;;;;-77
2022/11/25 14:37:29;;;;;;;5.6;1.3;;;;;;;;;;;;;-76
2022/11/25 14:41:10;;;;;;;;;;;;;;;8.44;100;101794.4;;;;-76
2022/11/25 14:46:19;;;;;;;;;;;;;;;8.39;100;101807;;;;-76
2022/11/25 14:51:09;;;;;;;;;;;;;;;8.34;100;101818.1;;;;-76
2022/11/25 14:56:08;;;;;;;;;;;;;;;8.3;100;101822.3;;;;-76
2022/11/25 15:01:09;;;;;;;;;;;;;;;8.26;100;101828.5;;;;-75
2022/11/25 15:06:08;;;;;;;;;;;;;;;8.21;100;101837.1;;;;-77
2022/11/25 15:07:27;;;;;;;6;1.2;;;;;;;;;;;;;-76
2022/11/25 15:11:16;;;;;;;;;;;;;;;8.15;100;101847.1;;;;-75
2022/11/25 15:16:10;;;;;;;;;;;;;;;8.08;100;101858.2;;;;-77
2022/11/25 15:21:08;;;;;;;;;;;;;;;8.02;100;101872.8;;;;-75
2022/11/25 15:26:17;;;;;;;;;;;;;;;7.95;100;101887.4;;;;-76
2022/11/25 15:31:19;;;;;;;;;;;;;;;7.86;100;101892.1;;;;-75
2022/11/25 15:36:08;;;;;;;;;;;;;;;7.8;100;101902;;;;-71
2022/11/25 15:37:26;;;;;;;7.8;1.4;;;;;;;;;;;;;-78
2022/11/25 15:41:08;;;;;;;;;;;;;;;7.77;100;101909.7;;;;-75
2022/11/25 15:46:09;;;;;;;;;;;;;;;7.68;100;101917.9;;;;-76
2022/11/25 15:51:09;;;;;;;;;;;;;;;7.63;100;101928.4;;;;-75
2022/11/25 15:56:09;;;;;;;;;;;;;;;7.58;100;101937.8;;;;-76
2022/11/25 16:01:09;;;;;;;;;;;;;;;7.52;100;101948.2;;;;-74
2022/11/25 16:06:18;;;;;;;;;;;;;;;7.4;100;101962.7;;;;-77
2022/11/25 16:07:28;;;;;;;10.2;1.6;;;;;;;;;;;;;-76
2022/11/25 16:11:18;;;;;;;;;;;;;;;7.34;100;101976.7;;;;-76
2022/11/25 16:16:23;;;;;;;;;;;;;;;7.26;100;101987;;;;-76
2022/11/25 16:26:23;;;;;;;;;;;;;;;7.09;100;101999.6;;;;-77
2022/11/25 16:31:07;;;;;;;;;;;;;;;7.06;100;102010.3;;;;-77
2022/11/25 16:36:07;;;;;;;;;;;;;;;7.03;100;102018.6;;;;-79
2022/11/25 16:37:26;;;;;;;7.9;1.3;;;;;;;;;;;;;-75
2022/11/25 16:41:11;;;;;;;;;;;;;;;6.97;100;102028.2;;;;-75
2022/11/25 16:46:08;;;;;;;;;;;;;;;6.91;100;102032.2;;;;-75
2022/11/25 16:51:11;;;;;;;;;;;;;;;6.86;100;102042.6;;;;-76
2022/11/25 16:56:07;;;;;;;;;;;;;;;6.82;100;102057.7;;;;-74
2022/11/25 17:01:07;;;;;;;;;;;;;;;6.77;100;102070.2;;;;-77
2022/11/25 17:06:15;;;;;;;;;;;;;;;6.74;100;102080.1;;;;-76
2022/11/25 17:07:26;;;;;;;7.8;1.5;;;;;;;;;;;;;-77
2022/11/25 17:11:07;;;;;;;;;;;;;;;6.72;100;102085;;;;-75
2022/11/25 17:16:07;;;;;;;;;;;;;;;6.67;100;102090.3;;;;-76
2022/11/25 17:21:07;;;;;;;;;;;;;;;6.64;100;102090.2;;;;-76
2022/11/25 17:26:07;;;;;;;;;;;;;;;6.58;100;102100.9;;;;-76
2022/11/25 17:31:07;;;;;;;;;;;;;;;6.55;100;102107.6;;;;-76
2022/11/25 17:36:08;;;;;;;;;;;;;;;6.53;100;102117.7;;;;-76
2022/11/25 17:37:29;;;;;;;9.3;2.1;;;;;;;;;;;;;-76
2022/11/25 17:41:08;;;;;;;;;;;;;;;6.49;100;102119.8;;;;-76
2022/11/25 17:46:08;;;;;;;;;;;;;;;6.44;100;102129.1;;;;-75
2022/11/25 17:51:07;;;;;;;;;;;;;;;6.4;100;102147;;;;-75
2022/11/25 17:56:15;;;;;;;;;;;;;;;6.38;100;102154.7;;;;-75
2022/11/25 18:01:07;;;;;;;;;;;;;;;6.33;100;102162.7;;;;-73
2022/11/25 18:06:07;;;;;;;;;;;;;;;6.29;100;102169.3;;;;-76
2022/11/25 18:07:26;;;;;;;8.3;1.9;;;;;;;;;;;;;-77
2022/11/25 18:11:09;;;;;;;;;;;;;;;6.22;100;102175.7;;;;-77
2022/11/25 18:16:08;;;;;;;;;;;;;;;6.2;100;102183.5;;;;-76
2022/11/25 18:21:07;;;;;;;;;;;;;;;6.18;100;102192.5;;;;-76
2022/11/25 18:26:07;;;;;;;;;;;;;;;6.11;100;102199.6;;;;-75
2022/11/25 18:31:08;;;;;;;;;;;;;;;6.07;100;102204.2;;;;-76
2022/11/25 18:36:08;;;;;;;;;;;;;;;6.03;100;102214.5;;;;-75
2022/11/25 18:37:26;;;;;;;6.8;1.6;;;;;;;;;;;;;-76
2022/11/25 18:41:07;;;;;;;;;;;;;;;6.02;100;102223.6;;;;-77
2022/11/25 18:46:08;;;;;;;;;;;;;;;6.03;100;102235.4;;;;-75
2022/11/25 18:51:07;;;;;;;;;;;;;;;5.98;100;102237.1;;;;-76
2022/11/25 18:56:08;;;;;;;;;;;;;;;5.95;100;102245;;;;-77
2022/11/25 19:01:09;;;;;;;;;;;;;;;5.93;100;102249.1;;;;-76
2022/11/25 19:06:15;;;;;;;;;;;;;;;5.9;100;102247.1;;;;-77
2022/11/25 19:07:27;;;;;;;9.9;2.1;;;;;;;;;;;;;-77
2022/11/25 19:11:09;;;;;;;;;;;;;;;5.88;100;102257.9;;;;-77
2022/11/25 19:16:10;;;;;;;;;;;;;;;5.86;100;102263.9;;;;-75
2022/11/25 19:21:07;;;;;;;;;;;;;;;5.81;100;102266.5;;;;-78
2022/11/25 19:26:10;;;;;;;;;;;;;;;5.8;100;102269.9;;;;-75
2022/11/25 19:31:08;;;;;;;;;;;;;;;5.77;100;102274.4;;;;-76
2022/11/25 19:36:08;;;;;;;;;;;;;;;5.75;100;102281.2;;;;-76
2022/11/25 19:37:28;;;;;;;7.2;2.5;;;;;;;;;;;;;-78
2022/11/25 19:41:07;;;;;;;;;;;;;;;5.74;100;102289.5;;;;-76
2022/11/25 19:46:09;;;;;;;;;;;;;;;5.73;100;102291.5;;;;-77
2022/11/25 19:51:09;;;;;;;;;;;;;;;5.73;100;102299.1;;;;-76
2022/11/25 19:56:09;;;;;;;;;;;;;;;5.77;100;102310.1;;;;-76
2022/11/25 20:01:07;;;;;;;;;;;;;;;5.77;100;102322.8;;;;-76
2022/11/25 20:06:08;;;;;;;;;;;;;;;5.76;100;102328.3;;;;-76
2022/11/25 20:07:25;;;;;;;8.3;3;;;;;;;;;;;;;-75
2022/11/25 20:11:07;;;;;;;;;;;;;;;5.7;100;102340.6;;;;-75
2022/11/25 20:16:12;;;;;;;;;;;;;;;5.7;100;102341.5;;;;-76
2022/11/25 20:21:08;;;;;;;;;;;;;;;5.64;100;102342.8;;;;-76
2022/11/25 20:26:07;;;;;;;;;;;;;;;5.59;100;102350.1;;;;-76
2022/11/25 20:31:07;;;;;;;;;;;;;;;5.55;100;102357.2;;;;-76
2022/11/25 20:36:09;;;;;;;;;;;;;;;5.5;100;102363.9;;;;-76
2022/11/25 20:37:26;;;;;;;10;3.4;;;;;;;;;;;;;-76
2022/11/25 20:41:07;;;;;;;;;;;;;;;5.48;100;102371.2;;;;-76
2022/11/25 20:46:08;;;;;;;;;;;;;;;5.48;100;102375.6;;;;-76
2022/11/25 20:51:09;;;;;;;;;;;;;;;5.45;100;102375.7;;;;-75
2022/11/25 20:56:07;;;;;;;;;;;;;;;5.42;100;102388.2;;;;-75
2022/11/25 21:01:08;;;;;;;;;;;;;;;5.37;100;102399.8;;;;-76
2022/11/25 21:06:14;;;;;;;;;;;;;;;5.34;100;102405.6;;;;-76
2022/11/25 21:07:24;;;;;;;7.5;3.4;;;;;;;;;;;;;-76
2022/11/25 21:11:08;;;;;;;;;;;;;;;5.36;100;102421;;;;-76
2022/11/25 21:16:07;;;;;;;;;;;;;;;5.31;100;102430.6;;;;-76
2022/11/25 21:21:13;;;;;;;;;;;;;;;5.28;100;102435.6;;;;-76
2022/11/25 21:26:09;;;;;;;;;;;;;;;5.23;100;102441.9;;;;-76
2022/11/25 21:31:08;;;;;;;;;;;;;;;5.2;100;102451.1;;;;-76
2022/11/25 21:36:08;;;;;;;;;;;;;;;5.19;100;102451.4;;;;-78
2022/11/25 21:37:29;;;;;;;8;3.1;;;;;;;;;;;;;-75
2022/11/25 21:41:08;;;;;;;;;;;;;;;5.14;100;102462.9;;;;-77
2022/11/25 21:46:09;;;;;;;;;;;;;;;5.1;100;102470.3;;;;-75
2022/11/25 21:51:08;;;;;;;;;;;;;;;5.07;100;102476.5;;;;-77
2022/11/25 21:56:14;;;;;;;;;;;;;;;5.01;100;102482;;;;-76
2022/11/25 22:01:08;;;;;;;;;;;;;;;5;100;102484.2;;;;-76
2022/11/25 22:06:08;;;;;;;;;;;;;;;4.97;100;102490.8;;;;-76
2022/11/25 22:07:24;;;;;;;7.5;3.1;;;;;;;;;;;;;-76
2022/11/25 22:11:08;;;;;;;;;;;;;;;4.93;100;102495.2;;;;-75
2022/11/25 22:16:08;;;;;;;;;;;;;;;4.93;100;102495.8;;;;-76
2022/11/25 22:21:07;;;;;;;;;;;;;;;4.89;100;102499.8;;;;-77
2022/11/25 22:26:07;;;;;;;;;;;;;;;4.9;100;102500.7;;;;-77
2022/11/25 22:31:13;;;;;;;;;;;;;;;4.89;100;102504.5;;;;-77
2022/11/25 22:36:08;;;;;;;;;;;;;;;4.86;100;102510.7;;;;-77
2022/11/25 22:37:25;;;;;;;8.7;3.1;;;;;;;;;;;;;-77
2022/11/25 22:41:08;;;;;;;;;;;;;;;4.83;100;102512.1;;;;-77
2022/11/25 22:46:10;;;;;;;;;;;;;;;4.8;100;102512.2;;;;-77
2022/11/25 22:51:09;;;;;;;;;;;;;;;4.77;100;102517.9;;;;-75
2022/11/25 22:56:07;;;;;;;;;;;;;;;4.76;100;102529.2;;;;-76
2022/11/25 23:01:07;;;;;;;;;;;;;;;4.75;100;102531.8;;;;-76
2022/11/25 23:06:08;;;;;;;;;;;;;;;4.75;100;102539.1;;;;-76
2022/11/25 23:07:27;;;;;;;9;3.1;;;;;;;;;;;;;-77
2022/11/25 23:11:08;;;;;;;;;;;;;;;4.73;100;102545.8;;;;-77
2022/11/25 23:16:08;;;;;;;;;;;;;;;4.76;100;102553.6;;;;-76
2022/11/25 23:21:07;;;;;;;;;;;;;;;4.72;100;102558.7;;;;-77
2022/11/25 23:26:09;;;;;;;;;;;;;;;4.73;100;102563.3;;;;-77
2022/11/25 23:31:07;;;;;;;;;;;;;;;4.73;100;102569.4;;;;-77
2022/11/25 23:36:09;;;;;;;;;;;;;;;4.73;100;102573.3;;;;-77
2022/11/25 23:37:23;;;;;;;8;2.7;;;;;;;;;;;;;-77
2022/11/25 23:41:07;;;;;;;;;;;;;;;4.74;100;102575.7;;;;-76
2022/11/25 23:46:08;;;;;;;;;;;;;;;4.71;100;102579.3;;;;-77
2022/11/25 23:51:08;;;;;;;;;;;;;;;4.71;100;102577.9;;;;-77
2022/11/25 23:56:14;;;;;;;;;;;;;;;4.71;100;102579.6;;;;-76
